Time;durP1;ratioP1;P1;durP2;ratioP2;P2;SDS_P1;SDS_P2;PMS_P1;PMS_P2;Temp;Humidity;BMP_temperature;BMP_pressure;BME280_temperature;BME280_humidity;BME280_pressure;Samples;Min_cycle;Max_cycle;Signal;HPM_P1;HPM_P2
2023/09/24 00:00:01;;;;;;;2.10;1.10;;;21.70;54.60;;;;;;5049467;28;20064;-69
2023/09/24 00:02:29;;;;;;;3.95;1.00;;;21.40;53.80;;;;;;5059290;28;20450;-69
2023/09/24 00:04:58;;;;;;;4.05;1.10;;;21.60;53.70;;;;;;5059685;28;20037;-69
2023/09/24 00:07:25;;;;;;;4.18;1.00;;;21.50;54.50;;;;;;5054702;28;20052;-70
2023/09/24 00:09:53;;;;;;;4.43;1.00;;;21.50;54.00;;;;;;5058557;28;20085;-70
2023/09/24 00:12:20;;;;;;;5.10;0.70;;;21.30;53.90;;;;;;5056777;28;20033;-69
2023/09/24 00:14:48;;;;;;;3.83;0.82;;;21.80;53.50;;;;;;5062930;28;20033;-69
2023/09/24 00:17:16;;;;;;;1.88;0.35;;;22.20;51.50;;;;;;5062924;28;20102;-69
2023/09/24 00:19:44;;;;;;;2.55;0.45;;;21.70;50.20;;;;;;5055847;28;20493;-68
2023/09/24 00:22:12;;;;;;;1.40;0.47;;;21.80;52.30;;;;;;5064897;28;20075;-70
2023/09/24 00:24:40;;;;;;;3.47;0.70;;;21.70;50.30;;;;;;5061731;28;20505;-68
2023/09/24 00:27:09;;;;;;;3.95;0.50;;;21.40;51.20;;;;;;5062297;28;20117;-70
2023/09/24 00:29:36;;;;;;;2.28;0.55;;;21.20;51.60;;;;;;5062902;28;20382;-70
2023/09/24 00:32:04;;;;;;;3.65;0.47;;;21.30;53.30;;;;;;5066413;28;20028;-70
2023/09/24 00:34:31;;;;;;;2.08;0.40;;;20.90;52.20;;;;;;5064982;28;20330;-69
2023/09/24 00:36:58;;;;;;;0.90;0.40;;;20.80;52.40;;;;;;5063421;28;20028;-68
2023/09/24 00:39:26;;;;;;;3.67;0.50;;;20.90;51.90;;;;;;5062909;28;20021;-68
2023/09/24 00:41:55;;;;;;;3.95;0.77;;;20.60;52.70;;;;;;5059809;28;20052;-69
2023/09/24 00:44:23;;;;;;;3.92;0.90;;;20.90;52.90;;;;;;5059722;28;20029;-68
2023/09/24 00:46:51;;;;;;;1.95;0.80;;;21.50;51.60;;;;;;5061091;28;20040;-69
2023/09/24 00:49:18;;;;;;;1.98;0.43;;;22.80;51.30;;;;;;5066067;28;20046;-69
2023/09/24 00:51:48;;;;;;;1.95;0.52;;;23.10;47.70;;;;;;5066334;28;20032;-68
2023/09/24 00:54:17;;;;;;;1.75;0.52;;;22.20;49.10;;;;;;5058714;28;20465;-68
2023/09/24 00:56:44;;;;;;;2.20;0.45;;;21.90;49.70;;;;;;5067124;28;20039;-69
2023/09/24 00:59:12;;;;;;;1.30;0.25;;;21.80;50.40;;;;;;5064759;28;20466;-68
2023/09/24 01:01:39;;;;;;;3.03;0.50;;;21.70;50.70;;;;;;5058306;28;20563;-69
2023/09/24 01:04:09;;;;;;;2.33;0.50;;;21.80;51.40;;;;;;5059952;28;20029;-67
2023/09/24 01:06:36;;;;;;;4.05;0.60;;;22.50;49.40;;;;;;5056054;28;20037;-71
2023/09/24 01:09:06;;;;;;;1.77;0.50;;;23.50;47.80;;;;;;5058524;28;20066;-69
2023/09/24 01:11:33;;;;;;;1.88;0.57;;;23.50;46.60;;;;;;5052422;28;20051;-68
2023/09/24 01:14:01;;;;;;;3.92;0.70;;;22.60;47.50;;;;;;5060253;28;20084;-69
2023/09/24 01:16:29;;;;;;;1.58;0.80;;;22.70;48.40;;;;;;5056214;28;20043;-68
2023/09/24 01:18:56;;;;;;;3.05;0.57;;;22.70;48.30;;;;;;5062661;28;20032;-71
2023/09/24 01:21:28;;;;;;;1.55;0.70;;;23.10;47.20;;;;;;5063579;28;20029;-69
2023/09/24 01:23:59;;;;;;;2.15;0.80;;;23.40;47.30;;;;;;5055220;28;20048;-68
2023/09/24 01:26:27;;;;;;;6.28;1.30;;;23.70;47.80;;;;;;5054786;28;20087;-67
2023/09/24 01:28:58;;;;;;;1.23;0.50;;;23.10;46.90;;;;;;5050886;28;20128;-67
2023/09/24 01:31:26;;;;;;;5.15;0.60;;;23.10;47.30;;;;;;5059989;28;20024;-69
2023/09/24 01:33:54;;;;;;;3.38;0.70;;;23.20;45.60;;;;;;5055682;28;21370;-68
2023/09/24 01:36:21;;;;;;;1.92;0.70;;;23.30;47.00;;;;;;5068352;28;20127;-69
2023/09/24 01:38:48;;;;;;;3.90;0.90;;;23.20;47.40;;;;;;5060049;28;20029;-69
2023/09/24 01:41:16;;;;;;;2.58;0.65;;;23.90;48.50;;;;;;5054298;28;20025;-69
2023/09/24 01:43:43;;;;;;;4.35;1.10;;;24.80;44.90;;;;;;5056791;28;20024;-70
2023/09/24 01:46:13;;;;;;;3.05;1.00;;;25.10;44.70;;;;;;5061114;28;20039;-69
2023/09/24 01:48:40;;;;;;;1.95;1.10;;;24.40;45.40;;;;;;5063508;28;20025;-70
2023/09/24 01:51:10;;;;;;;3.58;1.02;;;24.50;45.20;;;;;;5060443;28;20060;-69
2023/09/24 01:53:38;;;;;;;3.10;1.00;;;24.90;45.20;;;;;;5058538;28;20032;-69
2023/09/24 01:56:07;;;;;;;2.55;1.00;;;24.40;43.30;;;;;;5060243;28;20025;-69
2023/09/24 01:58:37;;;;;;;3.08;0.82;;;24.20;44.70;;;;;;5060968;28;20480;-72
2023/09/24 02:01:06;;;;;;;1.15;0.73;;;24.50;44.90;;;;;;5058405;28;20026;-72
2023/09/24 02:03:35;;;;;;;3.10;1.00;;;25.20;43.80;;;;;;5059852;28;20075;-69
2023/09/24 02:06:03;;;;;;;4.30;1.20;;;25.80;42.90;;;;;;5060218;28;20040;-71
2023/09/24 02:08:30;;;;;;;4.93;1.20;;;25.50;43.00;;;;;;5063552;28;20025;-68
2023/09/24 02:10:58;;;;;;;3.97;0.95;;;25.80;43.10;;;;;;5064115;28;20618;-68
2023/09/24 02:13:26;;;;;;;3.50;1.30;;;25.60;43.20;;;;;;5065283;28;20032;-68
2023/09/24 02:15:53;;;;;;;5.32;1.20;;;25.60;43.40;;;;;;5062584;28;20127;-69
2023/09/24 02:18:21;;;;;;;6.32;1.67;;;24.90;43.50;;;;;;5059665;28;20021;-69
2023/09/24 02:20:51;;;;;;;6.00;1.17;;;24.90;44.20;;;;;;5060388;28;20382;-69
2023/09/24 02:23:22;;;;;;;6.60;1.08;;;24.00;44.80;;;;;;5062221;28;20044;-70
2023/09/24 02:25:49;;;;;;;3.33;0.95;;;24.10;45.10;;;;;;5062829;28;20106;-69
2023/09/24 02:28:18;;;;;;;3.80;1.00;;;24.70;45.30;;;;;;5061082;28;20025;-69
2023/09/24 02:30:46;;;;;;;2.13;0.90;;;24.90;44.60;;;;;;5061852;28;20070;-70
2023/09/24 02:33:13;;;;;;;2.55;0.80;;;25.30;45.60;;;;;;5066050;28;20028;-70
2023/09/24 02:35:41;;;;;;;3.88;1.20;;;25.50;43.20;;;;;;5063564;28;20029;-69
2023/09/24 02:38:09;;;;;;;3.60;1.00;;;25.50;43.00;;;;;;5059527;28;20034;-69
2023/09/24 02:40:38;;;;;;;2.97;0.82;;;25.00;43.40;;;;;;5065338;28;20028;-68
2023/09/24 02:43:05;;;;;;;2.58;1.00;;;25.70;45.80;;;;;;5063199;28;20320;-69
2023/09/24 02:45:33;;;;;;;3.95;1.05;;;26.20;42.40;;;;;;5057297;28;20394;-70
2023/09/24 02:48:00;;;;;;;3.10;1.20;;;26.20;42.20;;;;;;5058423;28;20029;-69
2023/09/24 02:50:29;;;;;;;2.75;0.98;;;25.90;41.70;;;;;;5065107;28;20032;-70
2023/09/24 02:52:58;;;;;;;1.83;0.90;;;26.00;41.70;;;;;;5061139;28;20100;-69
2023/09/24 02:55:28;;;;;;;3.67;1.02;;;25.80;42.40;;;;;;5065747;28;20115;-70
2023/09/24 02:57:55;;;;;;;2.72;0.93;;;25.30;42.90;;;;;;5066957;28;20028;-69
2023/09/24 03:00:32;;;;;;;1.58;0.85;;;25.20;42.80;;;;;;5064513;28;20028;-70
2023/09/24 03:03:00;;;;;;;3.80;1.35;;;25.70;41.50;;;;;;5054274;28;20025;-69
2023/09/24 03:05:29;;;;;;;6.90;1.10;;;25.80;41.40;;;;;;5054583;28;20025;-70
2023/09/24 03:08:04;;;;;;;2.25;1.13;;;25.10;42.10;;;;;;5067404;28;20481;-69
2023/09/24 03:10:34;;;;;;;3.30;1.10;;;25.00;42.40;;;;;;5053897;28;20454;-70
2023/09/24 03:13:04;;;;;;;6.25;1.20;;;25.20;43.80;;;;;;5043893;28;20017;-69
2023/09/24 03:15:32;;;;;;;2.92;0.60;;;25.90;43.90;;;;;;5046902;28;20568;-69
2023/09/24 03:18:01;;;;;;;3.35;1.13;;;25.80;40.70;;;;;;5048707;28;20082;-70
2023/09/24 03:20:29;;;;;;;2.05;0.95;;;26.10;42.40;;;;;;5039574;28;20090;-70
2023/09/24 03:23:01;;;;;;;2.05;1.00;;;26.70;42.20;;;;;;5050281;28;20045;-70
2023/09/24 03:25:28;;;;;;;3.90;0.95;;;27.10;40.70;;;;;;5046599;28;20168;-71
2023/09/24 03:28:00;;;;;;;2.75;1.10;;;27.30;40.80;;;;;;5047799;28;22772;-69
2023/09/24 03:30:28;;;;;;;2.75;0.80;;;27.40;39.00;;;;;;5061810;28;20025;-69
2023/09/24 03:32:57;;;;;;;1.25;0.63;;;26.50;38.80;;;;;;5051900;28;20028;-70
2023/09/24 03:35:26;;;;;;;3.22;1.42;;;25.60;40.00;;;;;;5053693;28;20021;-68
2023/09/24 03:37:55;;;;;;;2.15;0.52;;;24.80;41.30;;;;;;5061013;28;20033;-70
2023/09/24 03:40:25;;;;;;;2.45;0.60;;;24.90;41.90;;;;;;5053514;28;20458;-70
2023/09/24 03:42:53;;;;;;;3.53;0.73;;;25.10;41.50;;;;;;5053669;28;20025;-69
2023/09/24 03:45:23;;;;;;;1.90;0.93;;;25.70;42.70;;;;;;5034930;28;20390;-70
2023/09/24 03:47:51;;;;;;;4.72;0.82;;;26.00;41.10;;;;;;5054663;28;20052;-69
2023/09/24 03:50:19;;;;;;;3.08;1.00;;;25.70;40.70;;;;;;5057288;28;20499;-70
2023/09/24 03:52:49;;;;;;;2.08;0.93;;;25.50;41.70;;;;;;5057052;28;20028;-70
2023/09/24 03:55:17;;;;;;;4.45;0.90;;;25.50;41.70;;;;;;5052994;28;20390;-70
2023/09/24 03:57:44;;;;;;;7.13;1.00;;;25.50;42.40;;;;;;5061086;28;20031;-70
2023/09/24 04:00:21;;;;;;;3.75;1.00;;;26.10;42.00;;;;;;5053780;28;20018;-70
2023/09/24 04:02:52;;;;;;;3.10;1.08;;;26.40;40.50;;;;;;5051825;28;20112;-70
2023/09/24 04:05:21;;;;;;;2.40;0.82;;;26.40;40.80;;;;;;5060531;28;20039;-69
2023/09/24 04:07:51;;;;;;;2.53;0.80;;;26.60;40.60;;;;;;5055449;28;20023;-70
2023/09/24 04:10:20;;;;;;;1.65;0.70;;;26.40;40.10;;;;;;5061677;28;20390;-69
2023/09/24 04:12:51;;;;;;;6.57;0.95;;;25.50;40.90;;;;;;5060404;28;20068;-70
2023/09/24 04:15:31;;;;;;;3.88;1.65;;;25.60;42.20;;;;;;5051183;28;20133;-70
2023/09/24 04:18:00;;;;;;;2.88;0.80;;;25.80;42.30;;;;;;5061632;28;20052;-70
2023/09/24 04:20:29;;;;;;;2.60;0.60;;;25.80;41.70;;;;;;5061509;28;20078;-69
2023/09/24 04:22:56;;;;;;;4.22;1.30;;;25.60;41.80;;;;;;5060523;28;20052;-70
2023/09/24 04:25:26;;;;;;;2.88;1.38;;;25.30;42.50;;;;;;5052983;28;20067;-69
2023/09/24 04:27:53;;;;;;;4.63;0.95;;;25.20;43.00;;;;;;5057272;28;20037;-69
2023/09/24 04:30:23;;;;;;;5.80;1.00;;;25.60;43.00;;;;;;5055165;28;20028;-70
2023/09/24 04:32:52;;;;;;;2.88;0.75;;;25.60;42.00;;;;;;5056838;28;20055;-68
2023/09/24 04:35:20;;;;;;;2.70;0.52;;;25.70;43.20;;;;;;5046403;28;20483;-69
2023/09/24 04:37:51;;;;;;;3.15;0.70;;;25.60;42.60;;;;;;5052045;28;20036;-70
2023/09/24 04:40:19;;;;;;;2.85;0.73;;;25.60;43.30;;;;;;5053218;28;20036;-69
2023/09/24 04:42:47;;;;;;;3.63;0.70;;;25.40;42.40;;;;;;5066030;28;20027;-70
2023/09/24 04:45:17;;;;;;;4.45;0.73;;;24.90;43.00;;;;;;5057713;28;20036;-70
2023/09/24 04:47:45;;;;;;;2.92;0.70;;;24.90;43.70;;;;;;5055100;28;20029;-70
2023/09/24 04:50:13;;;;;;;1.55;0.47;;;25.00;44.50;;;;;;5051309;28;20033;-70
2023/09/24 04:52:44;;;;;;;4.03;0.50;;;25.10;44.00;;;;;;5055425;28;20107;-69
2023/09/24 04:55:13;;;;;;;7.57;1.08;;;24.90;44.20;;;;;;5054991;28;20064;-70
2023/09/24 04:57:40;;;;;;;3.75;0.77;;;25.00;44.70;;;;;;5053108;28;20103;-69
2023/09/24 05:00:10;;;;;;;4.40;0.75;;;24.90;44.70;;;;;;5050283;28;20132;-70
2023/09/24 05:02:38;;;;;;;1.80;0.45;;;24.90;44.20;;;;;;5047171;28;20393;-69
2023/09/24 05:05:06;;;;;;;2.35;0.50;;;25.00;44.80;;;;;;5044837;28;20037;-69
2023/09/24 05:07:33;;;;;;;2.15;0.38;;;25.10;44.10;;;;;;5051114;28;20041;-71
2023/09/24 05:10:00;;;;;;;2.50;0.63;;;25.10;45.10;;;;;;5050811;28;20056;-69
2023/09/24 05:12:28;;;;;;;2.83;0.90;;;25.10;44.80;;;;;;5072049;28;20467;-70
2023/09/24 05:14:55;;;;;;;1.95;0.57;;;25.30;44.70;;;;;;5072321;28;20029;-69
2023/09/24 05:17:22;;;;;;;1.23;0.40;;;25.30;44.10;;;;;;5053845;28;20029;-69
2023/09/24 05:19:50;;;;;;;3.22;0.85;;;25.30;44.30;;;;;;5057100;28;20028;-69
2023/09/24 05:22:17;;;;;;;2.67;0.65;;;24.90;44.80;;;;;;5065343;28;20024;-69
2023/09/24 05:24:44;;;;;;;2.95;0.65;;;24.80;45.20;;;;;;5069485;28;20494;-70
2023/09/24 05:27:12;;;;;;;2.65;0.50;;;24.90;45.10;;;;;;5056144;28;20033;-70
2023/09/24 05:29:40;;;;;;;2.17;0.50;;;24.80;45.00;;;;;;5061155;28;20035;-68
2023/09/24 05:32:07;;;;;;;2.53;0.63;;;24.80;45.30;;;;;;5059011;28;20087;-68
2023/09/24 05:34:34;;;;;;;1.60;0.60;;;24.90;45.30;;;;;;5051000;28;20764;-69
2023/09/24 05:37:02;;;;;;;2.25;0.50;;;24.90;44.70;;;;;;5057906;28;20028;-69
2023/09/24 05:39:29;;;;;;;2.50;0.45;;;24.70;44.90;;;;;;5054866;28;20057;-69
2023/09/24 05:41:57;;;;;;;3.90;0.57;;;24.40;45.30;;;;;;5063435;28;20025;-69
2023/09/24 05:44:24;;;;;;;2.47;0.65;;;24.20;46.00;;;;;;5047860;28;20032;-69
2023/09/24 05:46:53;;;;;;;1.10;0.47;;;24.20;45.90;;;;;;5062020;28;20091;-69
2023/09/24 05:49:21;;;;;;;2.50;0.60;;;24.20;45.80;;;;;;5063590;28;20025;-70
2023/09/24 05:51:48;;;;;;;1.75;0.57;;;24.30;46.00;;;;;;5062563;28;20029;-70
2023/09/24 05:54:15;;;;;;;0.75;0.50;;;24.20;45.80;;;;;;5056780;28;20056;-69
2023/09/24 05:56:43;;;;;;;1.92;0.40;;;24.10;46.60;;;;;;5063698;28;20028;-69
2023/09/24 05:59:11;;;;;;;2.83;0.50;;;24.10;46.60;;;;;;5064562;28;20037;-69
2023/09/24 06:01:39;;;;;;;2.42;0.40;;;24.10;46.60;;;;;;5064324;28;20016;-69
2023/09/24 06:04:06;;;;;;;3.05;0.50;;;24.00;46.70;;;;;;5060429;28;20029;-67
2023/09/24 06:06:34;;;;;;;2.80;0.70;;;23.80;46.90;;;;;;5065863;28;20131;-69
2023/09/24 06:09:09;;;;;;;1.25;0.45;;;23.60;47.10;;;;;;5057416;28;20070;-68
2023/09/24 06:11:39;;;;;;;2.08;0.40;;;23.60;47.10;;;;;;5058693;28;20061;-69
2023/09/24 06:14:08;;;;;;;1.33;0.40;;;23.50;47.50;;;;;;5059317;28;20052;-70
2023/09/24 06:16:38;;;;;;;2.55;0.50;;;23.40;48.10;;;;;;5057712;28;20032;-68
2023/09/24 06:19:06;;;;;;;3.88;0.60;;;23.30;48.00;;;;;;5062197;28;20021;-69
2023/09/24 06:21:33;;;;;;;4.97;0.70;;;23.20;48.30;;;;;;5060118;28;20033;-69
2023/09/24 06:24:01;;;;;;;1.92;0.60;;;23.20;48.50;;;;;;5055970;28;20052;-69
2023/09/24 06:26:32;;;;;;;1.60;0.50;;;23.20;48.40;;;;;;5060808;28;20527;-69
2023/09/24 06:28:59;;;;;;;1.90;0.52;;;23.10;48.70;;;;;;5063896;28;20016;-67
2023/09/24 06:31:27;;;;;;;3.60;0.55;;;22.90;48.80;;;;;;5053861;28;20037;-69
2023/09/24 06:33:55;;;;;;;2.88;0.60;;;22.80;48.80;;;;;;5047798;28;20029;-69
2023/09/24 06:36:22;;;;;;;1.95;0.52;;;22.70;49.50;;;;;;5046654;28;20024;-69
2023/09/24 06:38:51;;;;;;;2.67;0.40;;;22.70;49.70;;;;;;5054756;28;20101;-68
2023/09/24 06:41:18;;;;;;;2.30;0.32;;;22.50;49.70;;;;;;5053117;28;20632;-67
2023/09/24 06:43:45;;;;;;;3.58;0.35;;;22.20;50.00;;;;;;5049790;28;20029;-69
2023/09/24 06:46:12;;;;;;;2.13;0.32;;;22.00;50.40;;;;;;5052237;28;20025;-69
2023/09/24 06:48:40;;;;;;;3.35;0.68;;;22.00;50.70;;;;;;5051907;28;20025;-71
2023/09/24 06:51:10;;;;;;;2.80;0.60;;;22.00;50.80;;;;;;5048583;28;20032;-68
2023/09/24 06:53:39;;;;;;;2.92;0.50;;;22.10;50.70;;;;;;5052884;28;20028;-70
2023/09/24 06:56:07;;;;;;;2.67;0.75;;;22.00;50.90;;;;;;5048394;28;20017;-69
2023/09/24 06:58:36;;;;;;;3.30;0.50;;;21.80;51.50;;;;;;5065327;28;20092;-69
2023/09/24 07:01:06;;;;;;;4.18;0.50;;;21.90;51.10;;;;;;5055794;28;20021;-69
2023/09/24 07:03:35;;;;;;;2.17;0.65;;;21.70;51.50;;;;;;5052700;28;20033;-69
2023/09/24 07:06:06;;;;;;;4.20;0.73;;;21.60;52.00;;;;;;5065928;28;20037;-70
2023/09/24 07:08:34;;;;;;;2.28;0.40;;;21.50;52.40;;;;;;5055403;28;20099;-69
2023/09/24 07:11:30;;;;;;;5.50;0.63;;;21.30;52.70;;;;;;5054541;28;20028;-69
2023/09/24 07:14:00;;;;;;;1.75;0.50;;;21.00;53.10;;;;;;5057885;28;20032;-68
2023/09/24 07:16:28;;;;;;;1.83;0.40;;;21.00;53.40;;;;;;5056050;28;20146;-69
2023/09/24 07:18:59;;;;;;;2.83;0.52;;;20.80;53.90;;;;;;5052997;28;20029;-69
2023/09/24 07:21:33;;;;;;;2.67;0.75;;;20.80;54.00;;;;;;5059434;28;20464;-69
2023/09/24 07:24:01;;;;;;;1.48;0.43;;;20.60;54.20;;;;;;5056457;28;20045;-69
2023/09/24 07:26:29;;;;;;;3.45;0.50;;;20.50;54.80;;;;;;5057907;28;20037;-67
2023/09/24 07:28:56;;;;;;;2.53;0.60;;;20.30;55.30;;;;;;5056905;28;20104;-69
2023/09/24 07:31:25;;;;;;;1.20;0.70;;;20.10;55.80;;;;;;5059376;28;20024;-67
2023/09/24 07:33:54;;;;;;;3.72;0.50;;;19.80;56.40;;;;;;5048838;28;20116;-69
2023/09/24 07:36:22;;;;;;;4.15;0.70;;;19.80;56.80;;;;;;5049422;28;20075;-69
2023/09/24 07:38:51;;;;;;;4.85;0.63;;;19.60;57.30;;;;;;5055138;28;20032;-69
2023/09/24 07:41:22;;;;;;;2.53;0.50;;;19.40;57.90;;;;;;5055600;28;20556;-70
2023/09/24 07:43:49;;;;;;;7.15;0.93;;;19.40;58.20;;;;;;5044300;28;20056;-70
2023/09/24 07:46:19;;;;;;;2.22;1.00;;;19.30;58.60;;;;;;5059348;28;20040;-70
2023/09/24 07:48:48;;;;;;;3.25;0.90;;;19.10;58.80;;;;;;5056659;28;20079;-69
2023/09/24 07:51:19;;;;;;;5.40;0.68;;;18.90;59.20;;;;;;5057348;28;20025;-69
2023/09/24 07:53:50;;;;;;;2.78;0.70;;;18.90;59.40;;;;;;5063031;28;20025;-70
2023/09/24 07:56:17;;;;;;;2.83;0.68;;;18.90;59.40;;;;;;5055201;28;20051;-71
2023/09/24 07:58:45;;;;;;;3.05;0.38;;;18.90;59.80;;;;;;5059421;28;20718;-69
2023/09/24 08:01:14;;;;;;;2.53;0.63;;;18.80;59.90;;;;;;5065755;28;20120;-70
2023/09/24 08:03:44;;;;;;;2.67;0.50;;;18.80;60.40;;;;;;5053594;28;20025;-70
2023/09/24 08:06:12;;;;;;;3.80;0.40;;;18.50;60.80;;;;;;5042584;28;20430;-69
2023/09/24 08:08:40;;;;;;;3.80;0.50;;;18.50;61.00;;;;;;5055879;28;20027;-69
2023/09/24 08:11:11;;;;;;;3.45;0.65;;;18.40;61.30;;;;;;5051464;28;20029;-69
2023/09/24 08:13:38;;;;;;;3.00;0.40;;;18.40;61.50;;;;;;5048501;28;20024;-70
2023/09/24 08:16:09;;;;;;;1.27;0.32;;;18.40;61.60;;;;;;5046162;28;20359;-70
2023/09/24 08:18:37;;;;;;;4.60;0.70;;;18.50;61.60;;;;;;5046909;28;20025;-70
2023/09/24 08:21:04;;;;;;;2.45;0.40;;;18.30;61.70;;;;;;5060069;28;20036;-68
2023/09/24 08:23:33;;;;;;;2.67;0.43;;;18.20;62.50;;;;;;5056372;28;20041;-69
2023/09/24 08:26:00;;;;;;;0.73;0.30;;;18.10;62.60;;;;;;5054398;28;20037;-67
2023/09/24 08:28:28;;;;;;;2.80;0.50;;;18.00;63.10;;;;;;5053683;28;20028;-70
2023/09/24 08:30:55;;;;;;;2.03;0.40;;;18.00;63.30;;;;;;5056707;28;20021;-69
2023/09/24 08:33:23;;;;;;;2.38;0.52;;;17.90;63.90;;;;;;5052840;28;20025;-67
2023/09/24 08:35:50;;;;;;;1.83;0.50;;;17.90;63.80;;;;;;5054998;28;20322;-68
2023/09/24 08:38:17;;;;;;;5.30;0.77;;;17.80;64.10;;;;;;5056309;28;20155;-69
2023/09/24 08:40:45;;;;;;;2.35;0.52;;;17.80;64.50;;;;;;5072217;28;20036;-69
2023/09/24 08:43:19;;;;;;;5.00;0.40;;;17.70;64.60;;;;;;5059518;28;20370;-69
2023/09/24 08:45:49;;;;;;;2.50;0.50;;;17.70;64.70;;;;;;5054441;28;20057;-69
2023/09/24 08:48:17;;;;;;;3.20;0.68;;;17.70;64.90;;;;;;5056720;28;20474;-69
2023/09/24 08:50:44;;;;;;;4.60;0.50;;;17.70;65.70;;;;;;5057967;28;20036;-69
2023/09/24 08:53:16;;;;;;;0.85;0.50;;;17.60;65.30;;;;;;5065345;28;20088;-68
2023/09/24 08:55:46;;;;;;;3.67;0.60;;;17.70;65.50;;;;;;5066032;28;20028;-70
2023/09/24 08:58:14;;;;;;;2.35;0.82;;;17.60;65.70;;;;;;5061383;28;20044;-69
2023/09/24 09:00:43;;;;;;;3.60;0.73;;;17.50;66.20;;;;;;5059605;28;20463;-68
2023/09/24 09:03:11;;;;;;;2.28;0.52;;;17.50;66.10;;;;;;5059151;28;20900;-68
2023/09/24 09:05:38;;;;;;;1.63;0.60;;;17.50;66.20;;;;;;5060493;28;20465;-68
2023/09/24 09:08:07;;;;;;;1.77;0.60;;;17.50;66.70;;;;;;5056383;28;20485;-68
2023/09/24 09:10:37;;;;;;;5.07;1.05;;;17.40;66.60;;;;;;5056817;28;20033;-67
2023/09/24 09:13:12;;;;;;;3.25;1.40;;;17.20;67.20;;;;;;5068516;28;20107;-69
2023/09/24 09:15:41;;;;;;;3.20;0.73;;;17.20;67.90;;;;;;5058968;28;20032;-70
2023/09/24 09:18:23;;;;;;;3.22;1.20;;;17.20;67.70;;;;;;5062610;28;20377;-69
2023/09/24 09:20:51;;;;;;;5.30;1.77;;;17.10;68.50;;;;;;5062855;28;20029;-67
2023/09/24 09:23:46;;;;;;;2.30;1.10;;;17.00;68.80;;;;;;5063892;28;20418;-68
2023/09/24 09:26:13;;;;;;;2.00;0.40;;;16.90;69.10;;;;;;5058530;28;20051;-69
2023/09/24 09:28:41;;;;;;;1.80;0.77;;;16.90;69.50;;;;;;5058456;28;20035;-69
2023/09/24 09:31:10;;;;;;;2.97;0.57;;;17.00;69.70;;;;;;5060969;28;20048;-68
2023/09/24 09:33:41;;;;;;;1.67;0.60;;;16.80;69.90;;;;;;5056466;28;20040;-69
2023/09/24 09:36:27;;;;;;;3.75;0.60;;;16.80;70.30;;;;;;5057909;28;20066;-72
2023/09/24 09:38:57;;;;;;;3.35;0.70;;;16.60;71.00;;;;;;5052575;28;20037;-68
2023/09/24 09:41:26;;;;;;;4.90;0.70;;;16.40;72.10;;;;;;5052435;28;20033;-68
2023/09/24 09:43:54;;;;;;;1.80;0.77;;;16.30;72.30;;;;;;5053401;28;20036;-68
2023/09/24 09:46:23;;;;;;;4.32;0.98;;;16.20;73.10;;;;;;5055854;28;20127;-69
2023/09/24 09:49:07;;;;;;;2.38;0.75;;;16.20;73.40;;;;;;5054001;28;20053;-70
2023/09/24 09:51:49;;;;;;;6.70;0.93;;;16.20;73.80;;;;;;5053453;28;20036;-70
2023/09/24 09:54:23;;;;;;;2.35;0.82;;;16.10;74.00;;;;;;5051201;28;20040;-70
2023/09/24 09:56:52;;;;;;;3.92;0.80;;;16.20;74.20;;;;;;5054167;28;20031;-70
2023/09/24 09:59:21;;;;;;;4.32;1.13;;;16.10;74.00;;;;;;5051228;28;20147;-69
2023/09/24 10:01:48;;;;;;;2.80;0.70;;;16.00;74.20;;;;;;5056776;28;20036;-68
2023/09/24 10:04:16;;;;;;;2.47;0.80;;;16.00;74.50;;;;;;5055958;28;20462;-68
2023/09/24 10:06:43;;;;;;;4.80;0.80;;;15.90;75.00;;;;;;5058358;28;20378;-68
2023/09/24 10:09:34;;;;;;;3.70;0.80;;;15.90;75.20;;;;;;5052636;28;20029;-69
2023/09/24 10:12:06;;;;;;;3.13;0.77;;;15.80;75.30;;;;;;5056886;28;20371;-69
2023/09/24 10:14:36;;;;;;;3.58;0.77;;;15.70;75.80;;;;;;5052678;28;20037;-68
2023/09/24 10:17:22;;;;;;;6.80;0.73;;;15.70;75.90;;;;;;5055478;28;20032;-67
2023/09/24 10:19:55;;;;;;;4.53;0.90;;;15.60;76.20;;;;;;5051849;28;20466;-68
2023/09/24 10:22:29;;;;;;;3.55;0.90;;;15.60;76.80;;;;;;5055347;28;20028;-68
2023/09/24 10:24:57;;;;;;;5.25;1.45;;;15.60;77.10;;;;;;5059797;28;20047;-67
2023/09/24 10:27:44;;;;;;;5.57;1.45;;;15.50;77.40;;;;;;5058509;28;20041;-68
2023/09/24 10:30:13;;;;;;;4.22;1.58;;;15.40;77.30;;;;;;5059466;28;20028;-67
2023/09/24 10:32:45;;;;;;;4.13;1.77;;;15.40;77.50;;;;;;5050753;28;20029;-70
2023/09/24 10:35:13;;;;;;;9.00;1.92;;;15.30;78.10;;;;;;5057271;28;20358;-69
2023/09/24 10:37:59;;;;;;;3.67;1.20;;;15.30;78.40;;;;;;5060173;28;20347;-69
2023/09/24 10:40:28;;;;;;;3.72;1.75;;;15.20;78.90;;;;;;5053518;28;20040;-69
2023/09/24 10:43:15;;;;;;;8.93;2.70;;;15.20;79.20;;;;;;5059254;28;20052;-69
2023/09/24 10:45:42;;;;;;;6.05;2.10;;;15.20;79.40;;;;;;5052849;28;20033;-68
2023/09/24 10:48:10;;;;;;;6.53;2.17;;;15.00;79.50;;;;;;5051397;28;20457;-68
2023/09/24 10:50:40;;;;;;;6.65;2.45;;;15.00;80.10;;;;;;5055678;28;20033;-69
2023/09/24 10:53:09;;;;;;;15.13;2.72;;;15.00;80.60;;;;;;5048374;28;20040;-70
2023/09/24 10:55:38;;;;;;;8.27;3.08;;;14.90;80.80;;;;;;5055528;28;20070;-68
2023/09/24 10:58:16;;;;;;;7.18;2.72;;;14.90;80.90;;;;;;5054862;28;20033;-68
2023/09/24 11:00:50;;;;;;;6.38;2.88;;;14.90;81.40;;;;;;5060670;28;20029;-69
2023/09/24 11:03:17;;;;;;;5.43;2.60;;;14.80;81.60;;;;;;5057059;28;20079;-70
2023/09/24 11:05:49;;;;;;;6.53;2.60;;;14.70;81.80;;;;;;5052209;28;20031;-69
2023/09/24 11:08:19;;;;;;;7.97;3.33;;;14.70;82.10;;;;;;5063785;28;20020;-69
2023/09/24 11:10:51;;;;;;;9.55;3.15;;;14.60;82.60;;;;;;5050575;28;20025;-69
2023/09/24 11:13:18;;;;;;;10.13;3.28;;;14.60;83.10;;;;;;5053655;28;20029;-69
2023/09/24 11:15:45;;;;;;;8.80;3.40;;;14.60;83.20;;;;;;5048499;28;20805;-69
2023/09/24 11:18:13;;;;;;;8.20;4.03;;;14.50;83.20;;;;;;5052633;28;20032;-69
2023/09/24 11:20:52;;;;;;;8.93;3.60;;;14.50;83.40;;;;;;5061942;28;20021;-68
2023/09/24 11:23:19;;;;;;;7.13;2.97;;;14.40;83.70;;;;;;5046835;28;20053;-68
2023/09/24 11:25:51;;;;;;;9.60;3.13;;;14.40;83.80;;;;;;5050012;28;20041;-68
2023/09/24 11:28:28;;;;;;;7.93;3.03;;;14.30;84.50;;;;;;5048316;28;20037;-69
2023/09/24 11:30:55;;;;;;;8.23;3.17;;;14.20;84.70;;;;;;5041488;28;20371;-68
2023/09/24 11:33:24;;;;;;;8.93;2.85;;;14.20;85.10;;;;;;5042079;28;20055;-69
2023/09/24 11:35:53;;;;;;;5.20;2.35;;;14.10;85.10;;;;;;5045966;28;20030;-68
2023/09/24 11:38:35;;;;;;;7.95;2.90;;;14.10;85.20;;;;;;5057267;28;20059;-68
2023/09/24 11:41:14;;;;;;;4.43;2.30;;;14.10;85.90;;;;;;5045341;28;20031;-68
2023/09/24 11:43:42;;;;;;;7.82;2.83;;;14.00;86.20;;;;;;5051588;28;20464;-68
2023/09/24 11:46:25;;;;;;;6.53;2.20;;;14.00;86.10;;;;;;5065083;28;20032;-68
2023/09/24 11:48:55;;;;;;;5.35;2.10;;;13.90;86.10;;;;;;5047790;28;20036;-68
2023/09/24 11:51:23;;;;;;;6.30;2.20;;;13.90;86.80;;;;;;5052803;28;20032;-69
2023/09/24 11:53:50;;;;;;;4.22;1.90;;;13.80;87.10;;;;;;5048149;28;20025;-68
2023/09/24 11:56:18;;;;;;;4.38;1.80;;;13.80;87.20;;;;;;5054209;28;20040;-69
2023/09/24 11:58:45;;;;;;;4.50;2.03;;;13.70;87.20;;;;;;5048831;28;20051;-68
2023/09/24 12:01:13;;;;;;;4.85;1.65;;;13.70;87.50;;;;;;5052559;28;20102;-68
2023/09/24 12:03:45;;;;;;;6.75;2.25;;;13.70;87.70;;;;;;5051666;28;20052;-68
2023/09/24 12:06:13;;;;;;;6.00;2.33;;;13.60;87.00;;;;;;5053549;28;20051;-69
2023/09/24 12:08:41;;;;;;;5.40;2.22;;;13.60;87.40;;;;;;5060514;28;20025;-69
2023/09/24 12:11:08;;;;;;;4.70;1.75;;;13.50;87.80;;;;;;5054121;28;20085;-68
2023/09/24 12:13:36;;;;;;;7.40;2.15;;;13.50;88.30;;;;;;5060034;28;20039;-67
2023/09/24 12:16:03;;;;;;;5.97;2.45;;;13.40;88.40;;;;;;5058788;28;20509;-67
2023/09/24 12:18:30;;;;;;;4.75;2.35;;;13.40;88.40;;;;;;5057665;28;20481;-68
2023/09/24 12:20:58;;;;;;;8.00;2.80;;;13.30;88.60;;;;;;5066217;28;20025;-69
2023/09/24 12:23:25;;;;;;;5.20;2.28;;;13.30;89.00;;;;;;5058301;28;20105;-68
2023/09/24 12:25:52;;;;;;;5.28;2.10;;;13.30;88.90;;;;;;5056603;28;20134;-68
2023/09/24 12:28:20;;;;;;;5.15;2.00;;;13.30;89.30;;;;;;5061037;28;20055;-68
2023/09/24 12:30:50;;;;;;;7.43;2.90;;;13.20;89.50;;;;;;5057216;28;20025;-67
2023/09/24 12:33:18;;;;;;;7.00;2.55;;;13.20;89.70;;;;;;5065446;28;20658;-67
2023/09/24 12:35:45;;;;;;;6.13;2.45;;;13.20;89.90;;;;;;5059487;28;20032;-69
2023/09/24 12:38:13;;;;;;;5.18;2.25;;;13.10;89.90;;;;;;5058297;28;20633;-68
2023/09/24 12:40:41;;;;;;;6.00;2.65;;;13.10;90.00;;;;;;5065163;28;20034;-68
2023/09/24 12:43:08;;;;;;;10.63;2.30;;;13.00;90.20;;;;;;5056691;28;20028;-68
2023/09/24 12:45:36;;;;;;;5.75;1.90;;;13.00;90.10;;;;;;5059085;28;20045;-69
2023/09/24 12:48:04;;;;;;;4.53;1.92;;;12.90;90.20;;;;;;5053288;28;20037;-68
2023/09/24 12:50:32;;;;;;;5.05;2.13;;;12.90;90.40;;;;;;5052515;28;20115;-68
2023/09/24 12:53:00;;;;;;;4.50;1.98;;;12.90;90.50;;;;;;5050162;28;20378;-69
2023/09/24 12:55:28;;;;;;;5.82;2.08;;;12.90;90.40;;;;;;5058478;28;20028;-69